< Typhoon 197132 1971 Season Typhoon 197134 >
Typhoon 197133 (NO-NAME)
General InformationTrack Information on Google Maps || Disaster Info.ResourceGoogle EarthGE AnimationAtom FeedGeoJSON
Detalied Best Track (Time Zone = UTC)
Year Month Day Hour Lat. Long. Pressure (hPa) Wind (kt) Class Image Chart
1971 10 11 00 20.0 124.9 996 0 2 -- Chart
1971 10 11 06 20.0 124.9 996 0 2 -- Chart
1971 10 11 12 20.0 124.9 996 0 2 -- Chart
1971 10 11 18 20.6 125.8 996 0 2 -- Chart
1971 10 12 00 21.0 126.5 996 0 2 -- Chart
1971 10 12 06 21.5 127.5 992 0 9 -- Chart
1971 10 12 12 22.3 128.5 992 0 9 -- Chart
1971 10 12 18 23.3 129.2 992 0 9 -- Chart
1971 10 13 00 24.5 129.8 992 0 9 -- Chart
1971 10 13 06 25.5 130.3 992 0 9 -- Chart
1971 10 13 12 27.2 130.9 992 0 9 -- Chart
1971 10 13 18 28.5 132.0 996 0 9 -- Chart
1971 10 14 00 29.6 133.3 998 0 9 -- Chart
1971 10 14 06 30.5 134.6 1002 0 6 -- Chart
1971 10 14 12 31.5 137.5 1004 0 6 -- Chart
1971 10 14 18 32.6 140.6 1004 0 6 -- Chart
1971 10 15 00 34.0 144.0 1004 0 6 -- Chart
1971 10 15 06 35.2 147.9 998 0 6 -- Chart
1971 10 15 12 35.8 151.0 996 0 6 -- Chart
1971 10 15 18 36.9 155.0 996 0 6 -- Chart
1971 10 16 00 38.1 159.1 996 0 6 -- Chart
1971 10 16 06 39.0 162.5 996 0 6 -- Chart
1971 10 16 12 39.9 166.4 1000 0 6 -- Chart
1971 10 16 18 40.4 170.1 1002 0 6 -- Chart
1971 10 17 00 41.0 174.0 1004 0 6 -- Chart
1971 10 17 06 41.5 177.8 1004 0 6 -- Chart
Japan Meteorological Agency Best Track Data | Correction Date : 1989-06-01
< Typhoon 197132 1971 Season Typhoon 197134 >

Help